Massillon, Ohio
Current Conditions -  °F | °C
As of 8:51 PM on Monday 24 Nov 2014 (Local Time) from KCAK Reporting Station
Overcast Overcast  
Wind Chill: 36°   Ceiling: 3500
Heat Index: 44°   Visibility: 10mi
Dew Point: 30°   Wind: 18mph
Humidity: 58%   Direction: 250°WSW
Pressure: 29.75"   Gusts: 26mph
Location:  40.79°N, 81.52°W
Report Text: KCAK 250151Z 25016G23KT 10SM OVC035 07/M01 A2975 RMK AO2 PK WND 23032/0123 SLP074 T00671011 $
Loading
Personal Weather Stations






























Interactive Weather Map New forecast layout! Learn more

10-Day Weather Forecast

Advertisements
Track Severe Weather on mobile